createdAt,value
2018-11-25T00:00:11.358Z,6.90
2018-11-25T00:02:39.303Z,6.90
2018-11-25T00:05:08.284Z,6.90
2018-11-25T00:07:36.275Z,6.90
2018-11-25T00:10:05.324Z,7.00
2018-11-25T00:12:33.299Z,7.00
2018-11-25T00:15:01.366Z,7.00
2018-11-25T00:17:29.363Z,6.90
2018-11-25T00:19:57.436Z,6.90
2018-11-25T00:22:28.761Z,6.80
2018-11-25T00:24:56.777Z,6.90
2018-11-25T00:27:24.756Z,6.90
2018-11-25T00:29:52.717Z,6.90
2018-11-25T00:32:20.647Z,6.90
2018-11-25T00:34:48.673Z,7.00
2018-11-25T00:37:20.412Z,7.00
2018-11-25T00:39:48.364Z,7.00
2018-11-25T00:42:16.360Z,7.00
2018-11-25T00:44:44.407Z,6.90
2018-11-25T00:47:12.334Z,6.90
2018-11-25T00:49:40.273Z,6.90
2018-11-25T00:52:11.496Z,6.90
2018-11-25T00:54:39.568Z,6.90
2018-11-25T00:57:07.537Z,7.00
2018-11-25T00:59:35.511Z,6.90
2018-11-25T01:02:03.441Z,6.90
2018-11-25T01:04:31.425Z,6.90
2018-11-25T01:07:02.728Z,6.90
2018-11-25T01:09:30.776Z,6.90
2018-11-25T01:11:58.724Z,7.00
2018-11-25T01:14:26.685Z,7.00
2018-11-25T01:16:54.613Z,7.00
2018-11-25T01:19:22.543Z,7.00
2018-11-25T01:21:50.505Z,7.00
2018-11-25T01:24:18.479Z,6.90
2018-11-25T01:26:46.447Z,6.80
2018-11-25T01:29:14.731Z,6.80
2018-11-25T01:31:42.688Z,6.80
2018-11-25T01:34:10.731Z,6.80
2018-11-25T01:36:38.691Z,6.80
2018-11-25T01:39:07.052Z,6.70
2018-11-25T01:41:35.088Z,6.60
2018-11-25T01:44:03.575Z,6.60
2018-11-25T01:46:31.753Z,6.70
2018-11-25T01:48:59.684Z,6.70
2018-11-25T01:51:27.635Z,6.80
2018-11-25T01:53:55.672Z,6.80
2018-11-25T01:56:23.731Z,6.90
2018-11-25T01:58:51.763Z,6.80
2018-11-25T02:01:19.695Z,6.80
2018-11-25T02:03:47.828Z,6.80
2018-11-25T02:06:15.819Z,6.80
2018-11-25T02:08:43.783Z,6.80
2018-11-25T02:11:11.948Z,6.80
2018-11-25T02:13:39.925Z,6.90
2018-11-25T02:16:07.856Z,6.90
2018-11-25T02:18:35.845Z,6.90
2018-11-25T02:21:04.335Z,6.90
2018-11-25T02:23:32.311Z,6.90
2018-11-25T02:26:00.585Z,6.90
2018-11-25T02:28:28.567Z,6.90
2018-11-25T02:30:56.513Z,6.90
2018-11-25T02:33:24.805Z,6.90
2018-11-25T02:35:52.871Z,7.00
2018-11-25T02:38:20.976Z,7.00
2018-11-25T02:40:49.030Z,7.00
2018-11-25T02:43:17.093Z,7.00
2018-11-25T02:45:45.056Z,6.90
2018-11-25T02:48:13.028Z,6.90
2018-11-25T02:50:40.985Z,6.90
2018-11-25T02:53:08.972Z,6.90
2018-11-25T02:55:37.218Z,7.00
2018-11-25T02:58:05.343Z,7.00
2018-11-25T03:00:33.394Z,7.00
2018-11-25T03:03:01.378Z,7.00
2018-11-25T03:05:29.327Z,7.00
2018-11-25T03:07:57.304Z,7.00
2018-11-25T03:12:58.769Z,7.00
2018-11-25T03:15:26.845Z,7.10
2018-11-25T03:17:54.792Z,7.10
2018-11-25T03:20:22.781Z,7.00
2018-11-25T03:22:50.835Z,7.00
2018-11-25T03:25:19.951Z,6.90
2018-11-25T03:27:47.920Z,6.90
2018-11-25T03:30:17.720Z,6.80
2018-11-25T03:32:46.623Z,6.70
2018-11-25T03:35:14.702Z,6.70
2018-11-25T03:37:42.774Z,6.70
2018-11-25T03:40:14.635Z,6.70
2018-11-25T03:42:42.580Z,6.80
2018-11-25T03:45:14.760Z,6.80
2018-11-25T03:47:42.738Z,6.90
2018-11-25T03:50:11.603Z,6.80
2018-11-25T03:52:39.601Z,6.90
2018-11-25T03:55:14.070Z,6.90
2018-11-25T03:57:42.041Z,6.90
2018-11-25T04:00:12.112Z,6.90
2018-11-25T04:02:40.098Z,6.90
2018-11-25T04:05:09.585Z,7.00
2018-11-25T04:07:37.552Z,7.00
2018-11-25T04:10:10.432Z,6.90
2018-11-25T04:12:38.517Z,6.90
2018-11-25T04:15:09.122Z,6.90
2018-11-25T04:17:37.120Z,6.90
2018-11-25T04:20:06.420Z,6.90
2018-11-25T04:22:34.385Z,7.00
2018-11-25T04:25:02.459Z,7.00
2018-11-25T04:27:30.533Z,7.00
2018-11-25T04:29:58.480Z,7.00
2018-11-25T04:32:26.493Z,7.10
2018-11-25T04:34:55.123Z,7.10
2018-11-25T04:37:23.123Z,7.10
2018-11-25T04:39:51.127Z,7.10
2018-11-25T04:42:19.046Z,7.10
2018-11-25T04:44:47.091Z,7.10
2018-11-25T04:47:15.100Z,7.10
2018-11-25T04:49:43.064Z,7.10
2018-11-25T04:52:11.020Z,7.10
2018-11-25T04:54:39.071Z,7.10
2018-11-25T04:57:07.023Z,7.10
2018-11-25T04:59:35.057Z,7.10
2018-11-25T05:02:03.027Z,7.10
2018-11-25T05:04:30.964Z,7.10
2018-11-25T05:06:58.904Z,7.10
2018-11-25T05:09:26.993Z,7.10
2018-11-25T05:11:54.917Z,7.10
2018-11-25T05:14:23.132Z,7.10
2018-11-25T05:16:51.071Z,7.00
2018-11-25T05:19:19.026Z,7.00
2018-11-25T05:21:47.041Z,7.00
2018-11-25T05:24:15.062Z,7.00
2018-11-25T05:26:43.044Z,6.90
2018-11-25T05:29:11.060Z,6.90
2018-11-25T05:31:39.020Z,6.90
2018-11-25T05:34:07.000Z,7.00
2018-11-25T05:36:34.926Z,7.10
2018-11-25T05:39:02.881Z,7.10
2018-11-25T05:41:37.618Z,7.10
2018-11-25T05:44:05.552Z,7.20
2018-11-25T05:46:33.492Z,7.20
2018-11-25T05:49:01.469Z,7.20
2018-11-25T05:51:30.312Z,7.20
2018-11-25T05:53:58.284Z,7.20
2018-11-25T05:56:26.933Z,7.20
2018-11-25T05:58:54.904Z,7.20
2018-11-25T06:01:22.949Z,7.20
2018-11-25T06:03:51.027Z,7.20
2018-11-25T06:06:19.173Z,7.20
2018-11-25T06:08:47.223Z,7.20
2018-11-25T06:11:15.312Z,7.20
2018-11-25T06:13:46.403Z,7.20
2018-11-25T06:16:14.712Z,7.30
2018-11-25T06:18:42.727Z,7.20
2018-11-25T06:21:10.755Z,7.20
2018-11-25T06:23:38.833Z,7.30
2018-11-25T06:26:06.799Z,7.30
2018-11-25T06:28:34.770Z,7.30
2018-11-25T06:31:02.834Z,7.20
2018-11-25T06:33:30.867Z,7.30
2018-11-25T06:35:58.884Z,7.30
2018-11-25T06:38:26.951Z,7.20
2018-11-25T06:40:54.903Z,7.20
2018-11-25T06:43:23.817Z,7.10
2018-11-25T06:45:51.849Z,7.10
2018-11-25T06:48:19.855Z,7.00
2018-11-25T06:50:47.832Z,7.00
2018-11-25T06:53:15.787Z,7.10
2018-11-25T06:55:43.768Z,7.10
2018-11-25T07:00:44.902Z,7.20
2018-11-25T07:03:12.849Z,7.20
2018-11-25T07:05:40.835Z,7.10
2018-11-25T07:08:08.836Z,7.20
2018-11-25T07:10:36.779Z,7.20
2018-11-25T07:13:08.538Z,7.30
2018-11-25T07:15:36.547Z,7.30
2018-11-25T07:18:04.511Z,7.30
2018-11-25T07:20:32.481Z,7.30
2018-11-25T07:23:00.489Z,7.30
2018-11-25T07:25:28.479Z,7.30
2018-11-25T07:27:56.593Z,7.30
2018-11-25T07:30:25.571Z,7.20
2018-11-25T07:32:53.662Z,7.20
2018-11-25T07:35:22.503Z,7.20
2018-11-25T07:37:50.429Z,7.20
2018-11-25T07:40:19.410Z,7.20
2018-11-25T07:42:47.566Z,7.20
2018-11-25T07:45:19.631Z,7.20
2018-11-25T07:47:47.720Z,7.10
2018-11-25T07:50:15.651Z,7.10
2018-11-25T07:52:44.574Z,7.20
2018-11-25T07:55:14.603Z,7.20
2018-11-25T07:57:42.764Z,7.30
2018-11-25T08:00:14.943Z,7.30
2018-11-25T08:02:43.015Z,7.30
2018-11-25T08:05:12.092Z,7.30
2018-11-25T08:07:40.243Z,7.30
2018-11-25T08:10:11.462Z,7.40
2018-11-25T08:12:39.415Z,7.40
2018-11-25T08:15:12.797Z,7.40
2018-11-25T08:17:40.730Z,7.40
2018-11-25T08:20:11.908Z,7.40
2018-11-25T08:22:39.985Z,7.40
2018-11-25T08:25:12.739Z,7.40
2018-11-25T08:27:40.703Z,7.40
2018-11-25T08:30:14.007Z,7.50
2018-11-25T08:32:42.092Z,7.50
2018-11-25T08:35:10.684Z,7.50
2018-11-25T08:37:38.638Z,7.50
2018-11-25T08:40:09.264Z,7.50
2018-11-25T08:42:37.257Z,7.50
2018-11-25T08:45:06.785Z,7.60
2018-11-25T08:47:34.834Z,7.60
2018-11-25T08:50:02.899Z,7.60
2018-11-25T08:52:30.845Z,7.70
2018-11-25T08:54:58.809Z,7.70
2018-11-25T08:57:26.793Z,7.70
2018-11-25T08:59:54.720Z,7.70
2018-11-25T09:02:22.756Z,7.70
2018-11-25T09:04:50.902Z,7.70
2018-11-25T09:07:18.899Z,7.80
2018-11-25T09:09:46.905Z,7.80
2018-11-25T09:12:15.060Z,7.70
2018-11-25T09:14:43.020Z,7.80
2018-11-25T09:17:11.092Z,7.80
2018-11-25T09:19:39.061Z,7.80
2018-11-25T09:22:07.016Z,7.80
2018-11-25T09:24:34.943Z,7.90
2018-11-25T09:27:02.905Z,8.00
2018-11-25T09:29:31.163Z,8.00
2018-11-25T09:31:59.075Z,8.00
2018-11-25T09:34:27.083Z,8.00
2018-11-25T09:36:55.055Z,8.00
2018-11-25T09:39:22.990Z,8.10
2018-11-25T09:41:50.958Z,8.00
2018-11-25T09:44:18.901Z,8.10
2018-11-25T09:46:46.868Z,8.10
2018-11-25T09:49:14.895Z,8.00
2018-11-25T09:51:43.128Z,8.00
2018-11-25T09:54:11.062Z,8.10
2018-11-25T09:56:39.014Z,8.10
2018-11-25T09:59:06.968Z,8.10
2018-11-25T10:01:38.317Z,8.10
2018-11-25T10:04:06.229Z,8.20
2018-11-25T10:06:34.157Z,8.20
2018-11-25T10:09:02.157Z,8.20
2018-11-25T10:11:30.205Z,8.20
2018-11-25T10:13:58.183Z,8.20
2018-11-25T10:16:29.850Z,8.20
2018-11-25T10:18:57.891Z,8.30
2018-11-25T10:21:25.892Z,8.20
2018-11-25T10:23:53.963Z,8.20
2018-11-25T10:26:21.968Z,8.30
2018-11-25T10:28:50.029Z,8.20
2018-11-25T10:31:17.960Z,8.30
2018-11-25T10:33:46.162Z,8.30
2018-11-25T10:36:14.147Z,8.30
2018-11-25T10:38:42.282Z,8.40
2018-11-25T10:41:10.255Z,8.40
2018-11-25T10:43:38.385Z,8.40
2018-11-25T10:46:06.391Z,8.40
2018-11-25T10:48:34.401Z,8.40
2018-11-25T10:51:02.334Z,8.40
2018-11-25T10:53:30.345Z,8.40
2018-11-25T10:55:58.296Z,8.40
2018-11-25T10:58:26.475Z,8.50
2018-11-25T11:00:54.476Z,8.50
2018-11-25T11:03:28.496Z,8.50
2018-11-25T11:06:02.044Z,8.50
2018-11-25T11:08:30.207Z,8.50
2018-11-25T11:10:58.136Z,8.50
2018-11-25T11:13:26.122Z,8.50
2018-11-25T11:15:54.067Z,8.50
2018-11-25T11:18:22.068Z,8.50
2018-11-25T11:20:50.053Z,8.60
2018-11-25T11:23:18.028Z,8.60
2018-11-25T11:25:46.095Z,8.60
2018-11-25T11:28:14.108Z,8.60
2018-11-25T11:30:42.145Z,8.60
2018-11-25T11:33:13.287Z,8.60
2018-11-25T11:35:41.263Z,8.60
2018-11-25T11:38:09.213Z,8.60
2018-11-25T11:40:37.257Z,8.60
2018-11-25T11:43:05.444Z,8.60
2018-11-25T11:45:33.404Z,8.60
2018-11-25T11:48:01.384Z,8.70
2018-11-25T11:50:29.328Z,8.70
2018-11-25T11:52:57.287Z,8.70
2018-11-25T11:55:25.261Z,8.60
2018-11-25T11:57:54.026Z,8.60
2018-11-25T12:00:26.351Z,8.70
2018-11-25T12:02:54.318Z,8.60
2018-11-25T12:05:22.422Z,8.70
2018-11-25T12:07:50.391Z,8.70
2018-11-25T12:10:18.789Z,8.70
2018-11-25T12:12:47.045Z,8.70
2018-11-25T12:15:19.301Z,8.70
2018-11-25T12:17:47.282Z,8.60
2018-11-25T12:20:15.361Z,8.60
2018-11-25T12:22:43.512Z,8.60
2018-11-25T12:25:12.974Z,8.60
2018-11-25T12:27:41.012Z,8.60
2018-11-25T12:30:11.240Z,8.70
2018-11-25T12:32:39.712Z,8.70
2018-11-25T12:35:08.785Z,8.70
2018-11-25T12:37:36.774Z,8.70
2018-11-25T12:40:09.047Z,8.70
2018-11-25T12:42:36.991Z,8.70
2018-11-25T12:45:06.623Z,8.70
2018-11-25T12:47:34.598Z,8.70
2018-11-25T12:50:02.574Z,8.70
2018-11-25T12:52:30.532Z,8.70
2018-11-25T12:54:58.518Z,8.70
2018-11-25T12:57:26.452Z,8.70
2018-11-25T12:59:54.457Z,8.70
2018-11-25T13:02:22.523Z,8.70
2018-11-25T13:04:50.469Z,8.70
2018-11-25T13:07:18.435Z,8.70
2018-11-25T13:09:46.537Z,8.70
2018-11-25T13:12:14.469Z,8.70
2018-11-25T13:14:42.577Z,8.70
2018-11-25T13:17:10.534Z,8.70
2018-11-25T13:19:38.493Z,8.70
2018-11-25T13:22:06.601Z,8.70
2018-11-25T13:24:34.975Z,8.70
2018-11-25T13:27:02.905Z,8.70
2018-11-25T13:29:30.892Z,8.70
2018-11-25T13:31:59.075Z,8.70
2018-11-25T13:34:27.048Z,8.70
2018-11-25T13:36:55.038Z,8.70
2018-11-25T13:39:23.079Z,8.70
2018-11-25T13:41:51.124Z,8.70
2018-11-25T13:44:19.102Z,8.70
2018-11-25T13:46:47.041Z,8.80
2018-11-25T13:49:14.994Z,8.80
2018-11-25T13:51:42.949Z,8.70
2018-11-25T13:54:11.888Z,8.80
2018-11-25T13:56:39.816Z,8.80
2018-11-25T13:59:07.948Z,8.80
2018-11-25T14:01:35.938Z,8.80
2018-11-25T14:04:03.875Z,8.80
2018-11-25T14:06:31.987Z,8.80
2018-11-25T14:08:59.908Z,8.80
2018-11-25T14:11:27.883Z,8.70
2018-11-25T14:13:55.860Z,8.70
2018-11-25T14:16:23.830Z,8.70
2018-11-25T14:18:51.983Z,8.70
2018-11-25T14:21:20.311Z,8.80
2018-11-25T14:23:48.288Z,8.80
2018-11-25T14:26:23.417Z,8.80
2018-11-25T14:28:50.973Z,8.80
2018-11-25T14:31:18.900Z,8.80
2018-11-25T14:33:46.870Z,8.80
2018-11-25T14:36:14.796Z,8.80
2018-11-25T14:38:42.771Z,8.80
2018-11-25T14:41:10.732Z,8.80
2018-11-25T14:43:38.657Z,8.80
2018-11-25T14:46:06.600Z,8.80
2018-11-25T14:48:34.575Z,8.80
2018-11-25T14:51:02.583Z,8.80
2018-11-25T14:53:30.543Z,8.80
2018-11-25T14:55:58.572Z,8.80
2018-11-25T14:58:26.595Z,8.70
2018-11-25T15:00:55.352Z,8.70
2018-11-25T15:03:22.561Z,8.70
2018-11-25T15:05:50.533Z,8.70
2018-11-25T15:08:26.797Z,8.70
2018-11-25T15:10:54.728Z,8.70
2018-11-25T15:13:22.657Z,8.70
2018-11-25T15:15:50.760Z,8.70
2018-11-25T15:18:18.707Z,8.70
2018-11-25T15:20:46.654Z,8.80
2018-11-25T15:23:15.451Z,8.80
2018-11-25T15:25:46.689Z,8.80
2018-11-25T15:28:14.611Z,8.70
2018-11-25T15:30:42.617Z,8.70
2018-11-25T15:33:10.592Z,8.80
2018-11-25T15:35:38.677Z,8.80
2018-11-25T15:38:07.032Z,8.70
2018-11-25T15:40:35.612Z,8.70
2018-11-25T15:43:03.695Z,8.70
2018-11-25T15:45:31.633Z,8.70
2018-11-25T15:48:07.083Z,8.70
2018-11-25T15:50:35.014Z,8.80
2018-11-25T15:53:02.959Z,8.70
2018-11-25T15:55:30.982Z,8.70
2018-11-25T15:57:58.911Z,8.70
2018-11-25T16:00:26.886Z,8.70
2018-11-25T16:02:55.067Z,8.70
2018-11-25T16:05:26.291Z,8.70
2018-11-25T16:07:54.234Z,8.70
2018-11-25T16:10:22.424Z,8.70
2018-11-25T16:12:51.206Z,8.60
2018-11-25T16:15:20.289Z,8.70
2018-11-25T16:17:48.618Z,8.60
2018-11-25T16:20:19.606Z,8.70
2018-11-25T16:22:48.952Z,8.70
2018-11-25T16:25:22.960Z,8.70
2018-11-25T16:27:53.007Z,8.60
2018-11-25T16:30:20.955Z,8.60
2018-11-25T16:32:48.929Z,8.50
2018-11-25T16:35:16.899Z,8.50
2018-11-25T16:37:44.945Z,8.50
2018-11-25T16:40:14.984Z,8.50
2018-11-25T16:42:42.932Z,8.50
2018-11-25T16:45:12.485Z,8.50
2018-11-25T16:47:40.422Z,8.60
2018-11-25T16:50:11.695Z,8.50
2018-11-25T16:52:43.416Z,8.60
2018-11-25T16:55:12.303Z,8.60
2018-11-25T16:57:40.686Z,8.60
2018-11-25T17:00:15.083Z,8.60
2018-11-25T17:02:43.170Z,8.50
2018-11-25T17:05:13.781Z,8.50
2018-11-25T17:07:41.938Z,8.40
2018-11-25T17:10:10.660Z,8.40
2018-11-25T17:12:38.636Z,8.50
2018-11-25T17:15:19.314Z,8.50
2018-11-25T17:17:47.305Z,8.40
2018-11-25T17:20:15.285Z,8.40
2018-11-25T17:22:43.299Z,8.40
2018-11-25T17:25:12.083Z,8.40
2018-11-25T17:27:39.965Z,8.40
2018-11-25T17:30:11.186Z,8.50
2018-11-25T17:32:39.179Z,8.50
2018-11-25T17:35:10.223Z,8.50
2018-11-25T17:37:38.296Z,8.40
2018-11-25T17:40:08.077Z,8.40
2018-11-25T17:42:36.092Z,8.30
2018-11-25T17:45:04.567Z,8.30
2018-11-25T17:47:32.846Z,8.20
2018-11-25T17:50:00.777Z,8.10
2018-11-25T17:52:28.700Z,8.10
2018-11-25T17:54:56.689Z,8.10
2018-11-25T17:57:24.707Z,8.10
2018-11-25T17:59:52.997Z,8.20
2018-11-25T18:02:20.928Z,8.20
2018-11-25T18:04:48.855Z,8.20
2018-11-25T18:07:17.046Z,8.20
2018-11-25T18:09:44.975Z,8.20
2018-11-25T18:12:12.917Z,8.20
2018-11-25T18:14:41.005Z,8.30
2018-11-25T18:17:10.056Z,8.30
2018-11-25T18:19:38.206Z,8.20
2018-11-25T18:22:11.000Z,8.30
2018-11-25T18:24:38.979Z,8.30
2018-11-25T18:27:06.929Z,8.30
2018-11-25T18:29:38.172Z,8.30
2018-11-25T18:32:06.095Z,8.30
2018-11-25T18:34:34.020Z,8.20
2018-11-25T18:37:02.096Z,8.20
2018-11-25T18:39:30.029Z,8.20
2018-11-25T18:41:57.970Z,8.20
2018-11-25T18:44:26.152Z,8.20
2018-11-25T18:46:54.112Z,8.20
2018-11-25T18:49:22.612Z,8.20
2018-11-25T18:51:50.604Z,8.20
2018-11-25T18:54:18.582Z,8.10
2018-11-25T18:56:46.523Z,8.10
2018-11-25T18:59:14.524Z,8.10
2018-11-25T19:01:52.302Z,8.10
2018-11-25T19:04:20.285Z,8.00
2018-11-25T19:06:48.352Z,8.00
2018-11-25T19:09:16.569Z,8.10
2018-11-25T19:11:44.553Z,8.10
2018-11-25T19:14:12.493Z,8.10
2018-11-25T19:16:40.424Z,8.10
2018-11-25T19:19:09.023Z,8.10
2018-11-25T19:21:37.037Z,8.10
2018-11-25T19:24:05.155Z,8.10
2018-11-25T19:26:33.168Z,8.10
2018-11-25T19:29:01.113Z,8.10
2018-11-25T19:31:29.145Z,8.10
2018-11-25T19:33:57.249Z,8.10
2018-11-25T19:36:25.314Z,8.10
2018-11-25T19:38:53.392Z,8.10
2018-11-25T19:41:22.392Z,8.10
2018-11-25T19:43:50.340Z,8.20
2018-11-25T19:46:18.364Z,8.10
2018-11-25T19:48:46.369Z,8.10
2018-11-25T19:51:17.623Z,8.10
2018-11-25T19:53:42.272Z,8.00
2018-11-25T19:56:10.335Z,8.00
2018-11-25T19:58:38.326Z,8.00
2018-11-25T20:01:06.938Z,8.00
2018-11-25T20:03:34.907Z,8.00
2018-11-25T20:06:02.941Z,7.90
2018-11-25T20:08:31.116Z,7.90
2018-11-25T20:10:59.153Z,7.90
2018-11-25T20:13:27.223Z,7.90
2018-11-25T20:15:59.531Z,8.00
2018-11-25T20:18:27.465Z,8.00
2018-11-25T20:21:01.111Z,8.00
2018-11-25T20:23:29.037Z,8.00
2018-11-25T20:25:57.092Z,8.10
2018-11-25T20:28:25.052Z,8.00
2018-11-25T20:30:53.048Z,8.00
2018-11-25T20:33:26.953Z,8.00
2018-11-25T20:35:54.917Z,8.00
2018-11-25T20:38:28.368Z,8.00
2018-11-25T20:40:57.055Z,7.90
2018-11-25T20:43:24.990Z,7.80
2018-11-25T20:45:58.543Z,7.80
2018-11-25T20:48:26.585Z,7.90
2018-11-25T20:50:54.495Z,7.90
2018-11-25T20:53:28.205Z,7.90
2018-11-25T20:55:56.299Z,7.90
2018-11-25T20:58:24.309Z,7.90
2018-11-25T21:00:52.535Z,7.90
2018-11-25T21:03:21.138Z,7.90
2018-11-25T21:05:49.112Z,7.90
2018-11-25T21:08:17.094Z,7.90
2018-11-25T21:10:45.051Z,7.90
2018-11-25T21:13:16.359Z,7.90
2018-11-25T21:15:44.425Z,7.90
2018-11-25T21:18:12.403Z,7.90
2018-11-25T21:20:40.348Z,7.80
2018-11-25T21:23:08.348Z,7.80
2018-11-25T21:25:36.391Z,7.80
2018-11-25T21:28:04.360Z,7.80
2018-11-25T21:30:32.388Z,7.80
2018-11-25T21:33:00.311Z,7.70
2018-11-25T21:35:28.279Z,7.80
2018-11-25T21:37:56.228Z,7.80
2018-11-25T21:40:24.859Z,7.80
2018-11-25T21:42:52.848Z,7.80
2018-11-25T21:45:21.138Z,7.80
2018-11-25T21:47:49.214Z,7.80
2018-11-25T21:50:20.416Z,7.80
2018-11-25T21:52:48.763Z,7.80
2018-11-25T21:55:17.388Z,7.70
2018-11-25T21:57:45.443Z,7.70
2018-11-25T22:00:14.805Z,7.70
2018-11-25T22:02:42.746Z,7.70
2018-11-25T22:05:11.193Z,7.60
2018-11-25T22:07:39.342Z,7.70
2018-11-25T22:10:08.879Z,7.70
2018-11-25T22:12:37.574Z,7.70
2018-11-25T22:15:07.623Z,7.60
2018-11-25T22:17:35.563Z,7.60
2018-11-25T22:20:04.244Z,7.60
2018-11-25T22:22:32.880Z,7.60
2018-11-25T22:25:00.867Z,7.70
2018-11-25T22:27:28.804Z,7.70
2018-11-25T22:29:56.936Z,7.60
2018-11-25T22:32:24.865Z,7.70
2018-11-25T22:34:52.804Z,7.60
2018-11-25T22:37:20.793Z,7.50
2018-11-25T22:39:48.738Z,7.50
2018-11-25T22:42:16.679Z,7.50
2018-11-25T22:44:44.740Z,7.50
2018-11-25T22:47:12.709Z,7.60
2018-11-25T22:49:40.655Z,7.50
2018-11-25T22:52:08.670Z,7.50
2018-11-25T22:54:36.611Z,7.40
2018-11-25T22:57:04.716Z,7.50
2018-11-25T22:59:32.571Z,7.50
2018-11-25T23:02:00.504Z,7.50
2018-11-25T23:04:40.048Z,7.50
2018-11-25T23:07:08.099Z,7.40
2018-11-25T23:09:36.033Z,7.40
2018-11-25T23:12:04.036Z,7.40
2018-11-25T23:14:31.973Z,7.40
2018-11-25T23:16:59.892Z,7.30
2018-11-25T23:19:27.911Z,7.30
2018-11-25T23:21:55.988Z,7.20
2018-11-25T23:24:23.928Z,7.10
2018-11-25T23:26:51.901Z,7.10
2018-11-25T23:29:19.840Z,7.10
2018-11-25T23:31:47.802Z,7.00
2018-11-25T23:34:15.786Z,7.10
2018-11-25T23:36:43.720Z,7.10
2018-11-25T23:39:11.679Z,7.00
2018-11-25T23:41:39.720Z,7.10
2018-11-25T23:44:07.917Z,7.00
2018-11-25T23:46:35.861Z,6.90
2018-11-25T23:49:03.808Z,6.90
2018-11-25T23:51:31.761Z,6.90
2018-11-25T23:53:59.681Z,6.80
2018-11-25T23:56:27.664Z,6.80
2018-11-25T23:58:55.594Z,6.80
